createdAt,value
2017-05-31T00:01:09.367Z,17.93
2017-05-31T00:03:36.911Z,16.72
2017-05-31T00:06:05.532Z,17.93
2017-05-31T00:08:33.554Z,16.58
2017-05-31T00:11:01.088Z,18.32
2017-05-31T00:13:29.404Z,17.90
2017-05-31T00:15:57.186Z,17.18
2017-05-31T00:18:25.307Z,17.40
2017-05-31T00:20:53.034Z,18.08
2017-05-31T00:23:21.532Z,19.05
2017-05-31T00:25:49.353Z,18.23
2017-05-31T00:28:19.208Z,18.40
2017-05-31T00:30:46.772Z,17.52
2017-05-31T00:33:14.495Z,17.82
2017-05-31T00:35:42.647Z,17.42
2017-05-31T00:38:10.204Z,17.10
2017-05-31T00:40:37.774Z,18.08
2017-05-31T00:43:06.079Z,18.75
2017-05-31T00:45:34.384Z,16.90
2017-05-31T00:48:02.984Z,17.85
2017-05-31T00:50:30.535Z,16.80
2017-05-31T00:52:58.236Z,17.12
2017-05-31T00:55:25.864Z,17.43
2017-05-31T00:57:53.428Z,18.30
2017-05-31T01:00:20.995Z,18.37
2017-05-31T01:02:48.519Z,19.00
2017-05-31T01:05:17.066Z,19.77
2017-05-31T01:07:44.899Z,19.35
2017-05-31T01:10:13.569Z,18.83
2017-05-31T01:12:41.111Z,19.43
2017-05-31T01:15:09.685Z,19.70
2017-05-31T01:17:38.092Z,19.95
2017-05-31T01:20:06.380Z,20.65
2017-05-31T01:22:33.943Z,19.57
2017-05-31T01:25:02.461Z,21.98
2017-05-31T01:27:30.394Z,20.32
2017-05-31T01:29:59.422Z,20.95
2017-05-31T01:32:27.723Z,21.87
2017-05-31T01:34:55.419Z,21.50
2017-05-31T01:37:23.391Z,21.87
2017-05-31T01:39:51.187Z,22.58
2017-05-31T01:42:19.551Z,22.38
2017-05-31T01:44:47.407Z,23.42
2017-05-31T01:47:15.776Z,24.78
2017-05-31T01:49:44.556Z,26.42
2017-05-31T01:52:12.139Z,24.43
2017-05-31T01:54:39.888Z,25.52
2017-05-31T01:57:07.710Z,23.63
2017-05-31T01:59:36.452Z,23.98
2017-05-31T02:02:05.224Z,23.03
2017-05-31T02:04:33.560Z,23.88
2017-05-31T02:07:01.400Z,24.20
2017-05-31T02:09:28.920Z,26.37
2017-05-31T02:11:56.472Z,26.15
2017-05-31T02:14:24.072Z,26.83
2017-05-31T02:16:52.573Z,26.23
2017-05-31T02:19:20.884Z,28.12
2017-05-31T02:21:49.523Z,27.63
2017-05-31T02:24:18.183Z,29.68
2017-05-31T02:26:46.839Z,30.45
2017-05-31T02:29:15.686Z,28.38
2017-05-31T02:31:43.236Z,29.82
2017-05-31T02:34:11.908Z,30.58
2017-05-31T02:36:39.832Z,30.30
2017-05-31T02:39:07.568Z,32.15
2017-05-31T02:41:35.887Z,32.25
2017-05-31T02:44:03.592Z,31.93
2017-05-31T02:46:31.109Z,30.65
2017-05-31T02:48:59.514Z,33.38
2017-05-31T02:51:27.932Z,35.32
2017-05-31T02:53:56.244Z,34.32
2017-05-31T02:56:24.754Z,36.65
2017-05-31T02:58:52.361Z,37.75
2017-05-31T03:01:20.423Z,39.02
2017-05-31T03:03:47.994Z,41.30
2017-05-31T03:06:15.946Z,36.70
2017-05-31T03:08:45.319Z,35.60
2017-05-31T03:11:13.637Z,37.87
2017-05-31T03:13:41.184Z,36.42
2017-05-31T03:16:08.696Z,36.87
2017-05-31T03:18:37.028Z,37.62
2017-05-31T03:21:05.305Z,37.40
2017-05-31T03:23:32.868Z,36.72
2017-05-31T03:26:00.475Z,35.75
2017-05-31T03:28:28.812Z,37.30
2017-05-31T03:30:57.467Z,39.65
2017-05-31T03:33:25.259Z,38.58
2017-05-31T03:35:52.836Z,37.60
2017-05-31T03:38:20.662Z,42.10
2017-05-31T03:40:49.262Z,39.60
2017-05-31T03:43:17.788Z,30.83
2017-05-31T03:45:45.663Z,32.25
2017-05-31T03:48:14.935Z,30.87
2017-05-31T03:50:43.244Z,31.30
2017-05-31T03:53:10.985Z,28.72
2017-05-31T03:55:38.540Z,31.98
2017-05-31T03:58:06.445Z,29.83
2017-05-31T04:00:35.123Z,30.08
2017-05-31T04:03:03.447Z,29.87
2017-05-31T04:05:31.248Z,32.90
2017-05-31T04:07:59.829Z,28.78
2017-05-31T04:10:28.159Z,29.45
2017-05-31T04:12:56.471Z,26.20
2017-05-31T04:15:24.831Z,27.63
2017-05-31T04:17:52.648Z,24.52
2017-05-31T04:20:21.213Z,25.55
2017-05-31T04:22:48.768Z,27.62
2017-05-31T04:25:17.340Z,26.12
2017-05-31T04:27:45.120Z,25.25
2017-05-31T04:30:12.662Z,24.32
2017-05-31T04:32:40.728Z,22.57
2017-05-31T04:35:08.339Z,23.42
2017-05-31T04:37:36.860Z,22.52
2017-05-31T04:40:04.508Z,23.02
2017-05-31T04:42:32.044Z,20.75
2017-05-31T04:45:00.385Z,22.27
2017-05-31T04:47:28.219Z,20.38
2017-05-31T04:49:55.997Z,21.95
2017-05-31T04:52:24.918Z,21.22
2017-05-31T04:54:53.310Z,22.47
2017-05-31T04:57:20.831Z,22.50
2017-05-31T04:59:49.103Z,22.28
2017-05-31T05:02:16.752Z,21.80
2017-05-31T05:04:44.301Z,21.45
2017-05-31T05:07:12.020Z,22.27
2017-05-31T05:09:40.739Z,20.95
2017-05-31T05:12:08.503Z,23.23
2017-05-31T05:14:36.219Z,23.12
2017-05-31T05:17:03.772Z,20.80
2017-05-31T05:19:31.340Z,20.43
2017-05-31T05:21:58.852Z,23.12
2017-05-31T05:24:26.386Z,22.27
2017-05-31T05:26:54.985Z,23.30
2017-05-31T05:29:22.568Z,22.00
2017-05-31T05:31:50.967Z,23.02
2017-05-31T05:34:18.475Z,23.42
2017-05-31T05:36:46.052Z,22.97
2017-05-31T05:39:15.405Z,23.80
2017-05-31T05:41:42.986Z,23.72
2017-05-31T05:44:10.763Z,23.88
2017-05-31T05:46:39.080Z,24.20
2017-05-31T05:49:06.624Z,23.58
2017-05-31T05:51:34.911Z,24.35
2017-05-31T05:54:03.359Z,23.45
2017-05-31T05:56:30.927Z,25.03
2017-05-31T05:58:58.487Z,23.12
2017-05-31T06:01:25.992Z,22.37
2017-05-31T06:03:53.764Z,23.03
2017-05-31T06:06:22.368Z,24.37
2017-05-31T06:08:50.360Z,24.83
2017-05-31T06:11:18.203Z,27.75
2017-05-31T06:13:46.760Z,26.12
2017-05-31T06:16:15.596Z,25.33
2017-05-31T06:18:43.959Z,25.15
2017-05-31T06:21:11.472Z,24.97
2017-05-31T06:23:39.019Z,26.90
2017-05-31T06:26:06.568Z,25.77
2017-05-31T06:28:34.939Z,25.53
2017-05-31T06:31:03.472Z,24.53
2017-05-31T06:33:31.047Z,25.92
2017-05-31T06:35:58.544Z,25.90
2017-05-31T06:38:26.847Z,25.17
2017-05-31T06:40:55.624Z,24.33
2017-05-31T06:43:23.154Z,26.13
2017-05-31T06:45:51.540Z,23.03
2017-05-31T06:48:19.838Z,23.10
2017-05-31T06:50:47.548Z,23.10
2017-05-31T06:53:15.967Z,20.70
2017-05-31T06:55:43.844Z,22.00
2017-05-31T06:58:12.620Z,21.03
2017-05-31T07:00:41.128Z,20.63
2017-05-31T07:03:09.664Z,20.40
2017-05-31T07:05:37.305Z,18.66
2017-05-31T07:08:04.967Z,18.35
2017-05-31T07:10:33.579Z,18.25
2017-05-31T07:13:01.112Z,20.98
2017-05-31T07:15:28.900Z,18.63
2017-05-31T07:17:56.474Z,16.60
2017-05-31T07:20:23.998Z,18.60
2017-05-31T07:22:51.555Z,17.55
2017-05-31T07:25:19.154Z,16.75
2017-05-31T07:27:47.439Z,17.70
2017-05-31T07:30:16.548Z,17.03
2017-05-31T07:32:44.349Z,16.52
2017-05-31T07:35:11.862Z,18.43
2017-05-31T07:37:39.680Z,15.37
2017-05-31T07:40:07.370Z,16.08
2017-05-31T07:42:36.065Z,17.53
2017-05-31T07:45:04.373Z,17.80
2017-05-31T07:47:32.734Z,18.43
2017-05-31T07:50:00.312Z,19.52
2017-05-31T07:52:27.817Z,19.50
2017-05-31T07:54:56.367Z,19.17
2017-05-31T07:57:24.632Z,18.98
2017-05-31T07:59:53.123Z,17.02
2017-05-31T08:02:22.322Z,16.45
2017-05-31T08:04:49.827Z,15.48
2017-05-31T08:07:17.356Z,14.85
2017-05-31T08:09:46.274Z,15.95
2017-05-31T08:12:13.824Z,14.10
2017-05-31T08:14:41.703Z,14.33
2017-05-31T08:17:09.343Z,16.08
2017-05-31T08:19:37.198Z,15.60
2017-05-31T08:22:04.750Z,14.10
2017-05-31T08:24:32.600Z,12.53
2017-05-31T08:27:00.875Z,13.40
2017-05-31T08:29:28.424Z,13.38
2017-05-31T08:31:57.027Z,12.84
2017-05-31T08:34:25.313Z,13.72
2017-05-31T08:36:53.704Z,10.94
2017-05-31T08:39:21.534Z,11.98
2017-05-31T08:41:49.887Z,10.00
2017-05-31T08:44:17.587Z,10.76
2017-05-31T08:46:45.128Z,9.38
2017-05-31T08:49:13.510Z,7.97
2017-05-31T08:51:41.175Z,8.32
2017-05-31T08:54:09.483Z,8.32
2017-05-31T08:56:37.744Z,7.48
2017-05-31T08:59:05.265Z,7.30
2017-05-31T09:01:32.763Z,6.80
2017-05-31T09:04:00.390Z,7.18
2017-05-31T09:06:27.986Z,7.58
2017-05-31T09:08:56.087Z,6.73
2017-05-31T09:11:24.347Z,6.05
2017-05-31T09:13:52.087Z,8.47
2017-05-31T09:16:20.488Z,8.38
2017-05-31T09:18:48.751Z,8.77
2017-05-31T09:21:17.073Z,8.98
2017-05-31T09:23:44.706Z,9.43
2017-05-31T09:26:12.245Z,9.63
2017-05-31T09:28:40.509Z,9.95
2017-05-31T09:31:08.829Z,10.23
2017-05-31T09:33:37.138Z,8.60
2017-05-31T09:36:05.632Z,9.82
2017-05-31T09:38:33.171Z,9.78
2017-05-31T09:41:00.672Z,9.65
2017-05-31T09:43:29.067Z,9.25
2017-05-31T09:45:56.667Z,8.32
2017-05-31T09:48:24.195Z,9.45
2017-05-31T09:50:51.980Z,9.95
2017-05-31T09:53:19.491Z,9.17
2017-05-31T09:55:47.108Z,9.72
2017-05-31T09:58:15.447Z,8.43
2017-05-31T10:00:43.053Z,9.94
2017-05-31T10:03:11.345Z,8.58
2017-05-31T10:05:39.043Z,9.60
2017-05-31T10:08:06.694Z,9.28
2017-05-31T10:10:34.345Z,8.90
2017-05-31T10:13:01.912Z,8.38
2017-05-31T10:15:29.515Z,9.50
2017-05-31T10:17:57.232Z,9.32
2017-05-31T10:20:24.880Z,10.23
2017-05-31T10:22:53.157Z,8.37
2017-05-31T10:25:21.021Z,9.53
2017-05-31T10:27:48.647Z,9.18
2017-05-31T10:30:16.972Z,9.98
2017-05-31T10:32:44.819Z,8.82
2017-05-31T10:35:12.452Z,9.12
2017-05-31T10:37:40.042Z,8.23
2017-05-31T10:40:07.532Z,8.77
2017-05-31T10:42:35.081Z,8.03
2017-05-31T10:45:02.907Z,8.15
2017-05-31T10:47:31.201Z,8.47
2017-05-31T10:49:58.744Z,7.57
2017-05-31T10:52:26.344Z,8.38
2017-05-31T10:54:53.920Z,7.17
2017-05-31T10:57:21.683Z,7.58
2017-05-31T10:59:50.437Z,6.80
2017-05-31T11:02:18.868Z,6.32
2017-05-31T11:04:47.631Z,6.18
2017-05-31T11:07:15.571Z,5.82
2017-05-31T11:09:43.160Z,8.53
2017-05-31T11:12:11.879Z,5.15
2017-05-31T11:14:39.421Z,5.02
2017-05-31T11:17:07.300Z,4.70
2017-05-31T11:19:35.569Z,4.73
2017-05-31T11:22:03.464Z,4.65
2017-05-31T11:24:31.759Z,4.90
2017-05-31T11:26:59.277Z,5.00
2017-05-31T11:29:26.810Z,6.02
2017-05-31T11:31:54.779Z,5.60
2017-05-31T11:34:23.769Z,5.08
2017-05-31T11:36:53.369Z,4.85
2017-05-31T11:39:21.891Z,3.95
2017-05-31T11:41:49.432Z,5.58
2017-05-31T11:44:18.887Z,4.23
2017-05-31T11:46:47.267Z,3.00
2017-05-31T11:49:15.003Z,3.12
2017-05-31T11:51:43.592Z,2.67
2017-05-31T11:54:11.172Z,3.20
2017-05-31T11:56:38.711Z,2.85
2017-05-31T11:59:06.237Z,2.38
2017-05-31T12:01:33.820Z,2.45
2017-05-31T12:04:01.472Z,2.60
2017-05-31T12:06:29.869Z,1.92
2017-05-31T12:08:57.428Z,1.67
2017-05-31T12:11:24.928Z,1.93
2017-05-31T12:13:53.464Z,2.40
2017-05-31T12:16:22.646Z,2.30
2017-05-31T12:18:51.024Z,2.47
2017-05-31T12:21:18.788Z,2.58
2017-05-31T12:23:47.147Z,2.47
2017-05-31T12:26:15.476Z,2.05
2017-05-31T12:28:43.752Z,1.77
2017-05-31T12:31:12.008Z,1.67
2017-05-31T12:33:39.567Z,2.40
2017-05-31T12:36:07.863Z,2.13
2017-05-31T12:38:35.387Z,2.12
2017-05-31T12:41:04.436Z,1.65
2017-05-31T12:43:32.230Z,1.72
2017-05-31T12:45:59.769Z,1.63
2017-05-31T12:48:28.507Z,1.97
2017-05-31T12:50:56.131Z,2.12
2017-05-31T12:53:23.660Z,2.03
2017-05-31T12:55:51.207Z,1.82
2017-05-31T12:58:19.592Z,1.78
2017-05-31T13:00:47.177Z,1.85
2017-05-31T13:03:14.708Z,1.72
2017-05-31T13:05:42.416Z,2.05
2017-05-31T13:08:09.930Z,1.92
2017-05-31T13:10:37.772Z,2.37
2017-05-31T13:13:05.331Z,1.55
2017-05-31T13:15:33.072Z,1.37
2017-05-31T13:18:00.852Z,1.75
2017-05-31T13:20:29.159Z,1.87
2017-05-31T13:22:57.476Z,1.45
2017-05-31T13:25:25.019Z,2.23
2017-05-31T13:27:52.515Z,1.63
2017-05-31T13:30:20.800Z,1.50
2017-05-31T13:32:48.336Z,1.62
2017-05-31T13:35:17.033Z,1.60
2017-05-31T13:37:45.325Z,1.50
2017-05-31T13:40:13.845Z,1.58
2017-05-31T13:42:41.363Z,1.82
2017-05-31T13:45:09.390Z,1.80
2017-05-31T13:47:36.946Z,1.92
2017-05-31T13:50:04.442Z,1.80
2017-05-31T13:52:32.187Z,4.18
2017-05-31T13:54:59.705Z,2.43
2017-05-31T13:57:27.228Z,1.62
2017-05-31T13:59:54.744Z,1.70
2017-05-31T14:02:22.239Z,1.90
2017-05-31T14:04:50.076Z,1.93
2017-05-31T14:07:17.600Z,2.28
2017-05-31T14:09:45.898Z,2.07
2017-05-31T14:12:13.440Z,1.90
2017-05-31T14:14:40.957Z,2.42
2017-05-31T14:17:08.472Z,2.65
2017-05-31T14:19:35.991Z,2.68
2017-05-31T14:22:04.300Z,2.48
2017-05-31T14:24:31.832Z,2.32
2017-05-31T14:26:59.369Z,2.52
2017-05-31T14:29:27.707Z,2.92
2017-05-31T14:31:55.400Z,3.48
2017-05-31T14:34:22.913Z,2.47
2017-05-31T14:36:50.471Z,3.38
2017-05-31T14:39:18.784Z,2.90
2017-05-31T14:41:46.290Z,2.95
2017-05-31T14:44:14.609Z,3.60
2017-05-31T14:46:42.174Z,3.62
2017-05-31T14:49:09.704Z,3.50
2017-05-31T14:51:37.221Z,3.42
2017-05-31T14:54:05.730Z,3.58
2017-05-31T14:56:33.930Z,3.00
2017-05-31T14:59:01.464Z,3.95
2017-05-31T15:01:30.063Z,3.25
2017-05-31T15:03:58.724Z,2.35
2017-05-31T15:06:27.015Z,2.32
2017-05-31T15:08:54.561Z,3.08
2017-05-31T15:11:22.881Z,2.90
2017-05-31T15:13:51.441Z,3.38
2017-05-31T15:16:19.709Z,2.22
2017-05-31T15:18:47.973Z,2.50
2017-05-31T15:21:15.497Z,3.15
2017-05-31T15:23:43.279Z,2.85
2017-05-31T15:26:11.860Z,3.07
2017-05-31T15:28:40.181Z,2.17
2017-05-31T15:31:08.111Z,2.48
2017-05-31T15:33:37.501Z,2.40
2017-05-31T15:36:05.763Z,1.95
2017-05-31T15:38:33.364Z,2.92
2017-05-31T15:41:00.897Z,2.40
2017-05-31T15:43:28.647Z,2.42
2017-05-31T15:45:56.916Z,2.53
2017-05-31T15:48:24.464Z,2.58
2017-05-31T15:50:52.733Z,2.68
2017-05-31T15:53:20.300Z,2.58
2017-05-31T15:55:54.649Z,3.22
2017-05-31T15:58:22.911Z,4.65
2017-05-31T16:00:50.428Z,4.58
2017-05-31T16:03:18.697Z,4.57
2017-05-31T16:05:47.357Z,5.05
2017-05-31T16:08:14.876Z,4.53
2017-05-31T16:10:43.135Z,4.77
2017-05-31T16:13:11.417Z,3.75
2017-05-31T16:15:39.722Z,4.40
2017-05-31T16:18:13.208Z,4.25
2017-05-31T16:20:41.716Z,4.70
2017-05-31T16:23:10.456Z,4.13
2017-05-31T16:25:38.056Z,4.25
2017-05-31T16:28:05.553Z,3.98
2017-05-31T16:30:33.866Z,3.98
2017-05-31T16:33:01.398Z,4.27
2017-05-31T16:35:29.163Z,3.97
2017-05-31T16:37:57.767Z,3.65
2017-05-31T16:40:26.143Z,3.12
2017-05-31T16:42:53.663Z,3.67
2017-05-31T16:45:22.264Z,4.37
2017-05-31T16:47:49.831Z,3.52
2017-05-31T16:50:17.336Z,3.23
2017-05-31T16:52:45.694Z,4.08
2017-05-31T16:55:13.231Z,3.95
2017-05-31T16:57:41.515Z,3.60
2017-05-31T17:00:09.058Z,3.93
2017-05-31T17:02:37.032Z,4.65
2017-05-31T17:05:04.633Z,4.27
2017-05-31T17:07:33.121Z,4.35
2017-05-31T17:10:00.907Z,4.65
2017-05-31T17:12:29.213Z,3.65
2017-05-31T17:14:57.771Z,3.70
2017-05-31T17:17:26.579Z,4.02
2017-05-31T17:19:55.156Z,3.50
2017-05-31T17:22:23.608Z,4.20
2017-05-31T17:24:51.160Z,4.53
2017-05-31T17:27:18.680Z,4.43
2017-05-31T17:29:46.179Z,4.12
2017-05-31T17:32:14.484Z,4.78
2017-05-31T17:34:42.769Z,4.05
2017-05-31T17:37:10.332Z,4.53
2017-05-31T17:39:37.847Z,4.80
2017-05-31T17:42:05.584Z,5.17
2017-05-31T17:44:33.149Z,4.25
2017-05-31T17:47:00.677Z,5.42
2017-05-31T17:49:28.402Z,4.68
2017-05-31T17:51:57.177Z,5.17
2017-05-31T17:54:24.691Z,4.72
2017-05-31T17:56:54.171Z,4.52
2017-05-31T17:59:21.699Z,5.00
2017-05-31T18:01:49.219Z,5.02
2017-05-31T18:04:16.999Z,4.93
2017-05-31T18:06:44.729Z,4.58
2017-05-31T18:09:13.223Z,4.48
2017-05-31T18:11:40.848Z,4.48
2017-05-31T18:14:09.161Z,4.22
2017-05-31T18:16:37.429Z,3.98
2017-05-31T18:19:05.443Z,4.78
2017-05-31T18:21:33.184Z,3.98
2017-05-31T18:24:00.991Z,4.28
2017-05-31T18:26:29.391Z,3.90
2017-05-31T18:28:57.109Z,4.00
2017-05-31T18:31:24.736Z,4.12
2017-05-31T18:33:53.303Z,4.53
2017-05-31T18:36:21.696Z,5.35
2017-05-31T18:38:49.231Z,3.70
2017-05-31T18:41:17.089Z,3.85
2017-05-31T18:43:44.635Z,4.33
2017-05-31T18:46:12.135Z,4.58
2017-05-31T18:48:40.423Z,4.35
2017-05-31T18:51:11.607Z,4.68
2017-05-31T18:53:39.921Z,4.43
2017-05-31T18:56:07.708Z,4.00
2017-05-31T18:58:35.450Z,4.12
2017-05-31T19:01:02.947Z,4.12
2017-05-31T19:03:30.511Z,4.50
2017-05-31T19:05:58.015Z,5.03
2017-05-31T19:08:25.512Z,3.70
2017-05-31T19:10:53.283Z,3.55
2017-05-31T19:13:21.759Z,4.48
2017-05-31T19:15:49.287Z,4.77
2017-05-31T19:18:16.784Z,4.55
2017-05-31T19:20:44.340Z,5.22
2017-05-31T19:23:11.836Z,3.80
2017-05-31T19:25:40.438Z,5.00
2017-05-31T19:28:07.976Z,4.40
2017-05-31T19:30:35.656Z,5.63
2017-05-31T19:33:03.475Z,5.25
2017-05-31T19:35:31.989Z,5.18
2017-05-31T19:38:01.264Z,5.38
2017-05-31T19:40:28.794Z,5.38
2017-05-31T19:42:57.095Z,4.87
2017-05-31T19:45:24.653Z,4.77
2017-05-31T19:47:52.427Z,5.13
2017-05-31T19:50:20.711Z,5.63
2017-05-31T19:52:48.391Z,5.40
2017-05-31T19:55:17.565Z,5.45
2017-05-31T19:57:45.319Z,5.50
2017-05-31T20:00:12.927Z,5.72
2017-05-31T20:02:40.872Z,5.80
2017-05-31T20:05:09.424Z,5.67
2017-05-31T20:07:38.596Z,6.40
2017-05-31T20:10:06.325Z,6.30
2017-05-31T20:12:34.759Z,5.58
2017-05-31T20:15:02.582Z,5.73
2017-05-31T20:17:30.328Z,6.00
2017-05-31T20:19:58.147Z,5.42
2017-05-31T20:22:25.709Z,6.93
2017-05-31T20:24:53.236Z,7.25
2017-05-31T20:27:20.775Z,6.95
2017-05-31T20:29:49.056Z,7.27
2017-05-31T20:32:17.532Z,7.50
2017-05-31T20:34:45.416Z,7.03
2017-05-31T20:37:13.221Z,7.07
2017-05-31T20:39:42.048Z,6.33
2017-05-31T20:42:09.853Z,6.13
2017-05-31T20:44:37.615Z,6.95
2017-05-31T20:47:05.139Z,6.80
2017-05-31T20:49:33.433Z,7.25
2017-05-31T20:52:01.011Z,6.83
2017-05-31T20:54:29.701Z,6.65
2017-05-31T20:56:57.448Z,7.07
2017-05-31T20:59:25.080Z,10.65
2017-05-31T21:01:52.734Z,8.53
2017-05-31T21:04:20.596Z,6.97
2017-05-31T21:06:48.464Z,6.32
2017-05-31T21:09:16.204Z,7.37
2017-05-31T21:11:43.973Z,6.68
2017-05-31T21:14:12.295Z,7.10
2017-05-31T21:16:39.798Z,5.70
2017-05-31T21:19:07.535Z,7.05
2017-05-31T21:21:35.994Z,6.60
2017-05-31T21:24:03.518Z,6.68
2017-05-31T21:26:31.266Z,6.98
2017-05-31T21:28:58.800Z,8.17
2017-05-31T21:31:27.067Z,7.18
2017-05-31T21:33:54.591Z,6.55
2017-05-31T21:36:22.879Z,6.83
2017-05-31T21:38:50.738Z,7.35
2017-05-31T21:41:18.260Z,8.10
2017-05-31T21:43:45.761Z,7.90
2017-05-31T21:46:13.337Z,7.12
2017-05-31T21:48:40.856Z,8.50
2017-05-31T21:51:08.380Z,8.20
2017-05-31T21:53:35.943Z,7.45
2017-05-31T21:56:04.393Z,6.85
2017-05-31T21:58:32.651Z,7.30
2017-05-31T22:01:01.487Z,6.85
2017-05-31T22:03:29.031Z,6.62
2017-05-31T22:05:56.529Z,7.32
2017-05-31T22:08:24.248Z,7.53
2017-05-31T22:10:52.547Z,7.47
2017-05-31T22:13:20.851Z,7.65
2017-05-31T22:15:49.140Z,7.10
2017-05-31T22:18:16.742Z,6.93
2017-05-31T22:20:45.173Z,7.48
2017-05-31T22:23:12.716Z,7.90
2017-05-31T22:25:41.178Z,7.42
2017-05-31T22:28:08.675Z,7.40
2017-05-31T22:30:37.072Z,7.32
2017-05-31T22:33:05.547Z,8.88
2017-05-31T22:35:33.359Z,7.42
2017-05-31T22:38:01.628Z,7.98
2017-05-31T22:40:29.271Z,7.92
2017-05-31T22:42:58.447Z,8.15
2017-05-31T22:45:26.786Z,8.23
2017-05-31T22:47:54.316Z,7.75
2017-05-31T22:50:21.921Z,7.60
2017-05-31T22:52:49.423Z,9.15
2017-05-31T22:55:18.025Z,8.47
2017-05-31T22:57:46.417Z,9.30
2017-05-31T23:00:14.684Z,8.23
2017-05-31T23:02:42.574Z,9.43
2017-05-31T23:05:10.295Z,9.46
2017-05-31T23:07:38.955Z,8.40
2017-05-31T23:10:06.540Z,10.07
2017-05-31T23:12:35.193Z,9.28
2017-05-31T23:15:03.747Z,8.22
2017-05-31T23:17:31.667Z,8.78
2017-05-31T23:19:59.245Z,8.43
2017-05-31T23:22:28.620Z,9.13
2017-05-31T23:24:56.207Z,10.33
2017-05-31T23:27:24.697Z,8.85
2017-05-31T23:29:53.172Z,10.20
2017-05-31T23:32:20.740Z,11.20
2017-05-31T23:34:49.035Z,10.38
2017-05-31T23:37:16.947Z,10.10
2017-05-31T23:39:45.254Z,11.02
2017-05-31T23:42:12.873Z,10.10
2017-05-31T23:44:40.818Z,10.93
2017-05-31T23:47:08.405Z,10.38
2017-05-31T23:49:36.705Z,10.13
2017-05-31T23:52:04.256Z,10.02
2017-05-31T23:54:32.548Z,10.55
2017-05-31T23:57:00.158Z,11.48
2017-05-31T23:59:27.700Z,10.62
